createdAt,value
2022-10-19T00:01:09.967Z,13.30
2022-10-19T00:03:44.052Z,13.20
2022-10-19T00:06:19.843Z,13.20
2022-10-19T00:08:54.062Z,13.10
2022-10-19T00:11:27.718Z,13.10
2022-10-19T00:14:02.350Z,13.10
2022-10-19T00:16:40.061Z,13.10
2022-10-19T00:19:16.231Z,13.30
2022-10-19T00:24:24.626Z,12.90
2022-10-19T00:26:58.709Z,12.80
2022-10-19T00:29:32.730Z,13.10
2022-10-19T00:32:09.817Z,12.80
2022-10-19T00:34:44.654Z,12.90
2022-10-19T00:37:18.750Z,12.70
2022-10-19T00:39:52.795Z,13.00
2022-10-19T00:42:27.168Z,12.70
2022-10-19T00:45:06.766Z,12.70
2022-10-19T00:47:43.628Z,12.60
2022-10-19T00:50:17.825Z,12.80
2022-10-19T00:52:51.840Z,12.60
2022-10-19T00:55:26.112Z,12.50
2022-10-19T00:57:59.897Z,12.50
2022-10-19T01:00:34.335Z,12.40
2022-10-19T01:03:12.378Z,12.70
2022-10-19T01:05:47.247Z,12.40
2022-10-19T01:08:21.829Z,12.40
2022-10-19T01:10:59.351Z,12.40
2022-10-19T01:13:40.303Z,12.50
2022-10-19T01:16:18.111Z,12.40
2022-10-19T01:18:57.335Z,12.40
2022-10-19T01:21:32.433Z,12.30
2022-10-19T01:24:39.791Z,12.60
2022-10-19T01:27:34.802Z,12.30
2022-10-19T01:30:07.016Z,12.20
2022-10-19T01:32:54.788Z,12.20
2022-10-19T01:35:31.547Z,12.10
2022-10-19T01:38:10.675Z,12.10
2022-10-19T01:40:47.769Z,12.10
2022-10-19T01:43:25.482Z,12.10
2022-10-19T01:46:02.661Z,12.20
2022-10-19T01:48:39.515Z,12.10
2022-10-19T01:51:15.625Z,12.10
2022-10-19T01:53:50.868Z,12.10
2022-10-19T01:56:27.124Z,12.10
2022-10-19T01:59:01.986Z,12.10
2022-10-19T02:01:37.741Z,12.20
2022-10-19T02:04:15.010Z,12.20
2022-10-19T02:06:49.006Z,12.20
2022-10-19T02:09:23.081Z,12.20
2022-10-19T02:11:59.503Z,12.50
2022-10-19T02:14:33.850Z,12.30
2022-10-19T02:17:09.522Z,12.20
2022-10-19T02:19:47.094Z,12.20
2022-10-19T02:22:20.892Z,12.20
2022-10-19T02:24:53.115Z,12.30
2022-10-19T02:27:26.939Z,12.20
2022-10-19T02:30:00.873Z,12.30
2022-10-19T02:32:35.364Z,12.30
2022-10-19T02:35:12.984Z,12.30
2022-10-19T02:37:45.101Z,12.40
2022-10-19T02:40:19.079Z,12.40
2022-10-19T02:42:54.189Z,12.30
2022-10-19T02:45:30.218Z,12.40
2022-10-19T02:48:04.173Z,12.40
2022-10-19T02:50:40.800Z,12.40
2022-10-19T02:53:15.303Z,12.40
2022-10-19T02:55:50.860Z,12.40
2022-10-19T02:58:24.913Z,12.30
2022-10-19T03:00:58.786Z,12.30
2022-10-19T03:03:32.717Z,12.40
2022-10-19T03:06:10.115Z,12.40
2022-10-19T03:08:44.100Z,12.40
2022-10-19T03:11:18.314Z,12.30
2022-10-19T03:13:53.117Z,12.50
2022-10-19T03:16:27.279Z,12.40
2022-10-19T03:19:01.825Z,12.40
2022-10-19T03:21:38.725Z,12.30
2022-10-19T03:24:12.952Z,12.30
2022-10-19T03:26:46.865Z,12.40
2022-10-19T03:29:19.271Z,12.30
2022-10-19T03:31:53.861Z,12.10
2022-10-19T03:34:28.286Z,12.30
2022-10-19T03:37:06.095Z,12.20
2022-10-19T03:39:40.132Z,12.20
2022-10-19T03:42:14.244Z,12.10
2022-10-19T03:44:48.916Z,12.10
2022-10-19T03:47:22.820Z,12.00
2022-10-19T03:49:57.577Z,12.00
2022-10-19T03:52:34.846Z,12.00
2022-10-19T03:55:10.936Z,12.10
2022-10-19T03:57:45.012Z,11.90
2022-10-19T04:00:20.211Z,12.10
2022-10-19T04:02:55.587Z,11.90
2022-10-19T04:05:29.817Z,11.80
2022-10-19T04:08:06.695Z,11.80
2022-10-19T04:10:41.343Z,11.80
2022-10-19T04:13:16.314Z,11.70
2022-10-19T04:15:51.413Z,11.70
2022-10-19T04:18:24.224Z,11.70
2022-10-19T04:21:00.055Z,11.70
2022-10-19T04:23:37.171Z,11.80
2022-10-19T04:26:11.154Z,11.70
2022-10-19T04:28:45.572Z,11.80
2022-10-19T04:31:20.295Z,11.70
2022-10-19T04:33:55.001Z,11.80
2022-10-19T04:36:28.970Z,11.70
2022-10-19T04:39:05.841Z,11.70
2022-10-19T04:41:40.590Z,11.70
2022-10-19T04:44:15.709Z,11.70
2022-10-19T04:46:50.160Z,11.60
2022-10-19T04:49:24.049Z,11.60
2022-10-19T04:51:57.940Z,11.60
2022-10-19T04:54:35.244Z,11.80
2022-10-19T04:57:10.396Z,11.60
2022-10-19T04:59:44.775Z,11.50
2022-10-19T05:02:19.042Z,11.50
2022-10-19T05:04:53.118Z,11.70
2022-10-19T05:07:27.847Z,11.40
2022-10-19T05:10:04.792Z,11.70
2022-10-19T05:12:39.067Z,11.40
2022-10-19T05:15:14.271Z,11.40
2022-10-19T05:17:49.564Z,11.40
2022-10-19T05:20:23.966Z,11.40
2022-10-19T05:23:01.998Z,11.40
2022-10-19T05:25:40.943Z,11.40
2022-10-19T05:28:15.038Z,11.40
2022-10-19T05:30:49.123Z,11.50
2022-10-19T05:33:23.039Z,11.40
2022-10-19T05:35:56.943Z,11.50
2022-10-19T05:38:32.518Z,11.40
2022-10-19T05:41:09.589Z,11.40
2022-10-19T05:43:44.381Z,11.40
2022-10-19T05:46:19.889Z,11.40
2022-10-19T05:48:54.558Z,11.70
2022-10-19T05:51:29.566Z,11.30
2022-10-19T05:54:04.136Z,11.40
2022-10-19T05:56:40.962Z,11.70
2022-10-19T05:59:17.919Z,11.30
2022-10-19T06:01:52.080Z,11.30
2022-10-19T06:04:25.898Z,11.30
2022-10-19T06:07:00.329Z,11.20
2022-10-19T06:09:36.798Z,11.20
2022-10-19T06:12:15.809Z,11.30
2022-10-19T06:14:54.195Z,11.50
2022-10-19T06:17:29.608Z,11.20
2022-10-19T06:20:05.040Z,11.10
2022-10-19T06:22:38.813Z,11.10
2022-10-19T06:25:17.922Z,11.10
2022-10-19T06:27:57.968Z,11.10
2022-10-19T06:30:31.897Z,11.10
2022-10-19T06:33:06.800Z,11.20
2022-10-19T06:35:42.884Z,11.20
2022-10-19T06:38:18.996Z,11.20
2022-10-19T06:40:53.111Z,11.20
2022-10-19T06:43:30.157Z,11.20
2022-10-19T06:46:07.274Z,11.60
2022-10-19T06:48:42.167Z,11.50
2022-10-19T06:51:16.138Z,11.20
2022-10-19T06:53:51.692Z,11.20
2022-10-19T06:56:30.718Z,11.20
2022-10-19T06:59:08.977Z,11.20
2022-10-19T07:01:43.731Z,11.30
2022-10-19T07:04:17.951Z,11.30
2022-10-19T07:06:50.040Z,11.30
2022-10-19T07:09:24.078Z,11.30
2022-10-19T07:11:58.621Z,11.70
2022-10-19T07:14:39.064Z,11.40
2022-10-19T07:17:13.613Z,11.50
2022-10-19T07:19:48.248Z,11.80
2022-10-19T07:22:27.238Z,11.60
2022-10-19T07:25:01.904Z,11.60
2022-10-19T07:27:41.715Z,11.90
2022-10-19T07:30:19.022Z,11.90
2022-10-19T07:32:52.948Z,11.70
2022-10-19T07:35:27.340Z,11.80
2022-10-19T07:38:02.659Z,11.90
2022-10-19T07:40:37.008Z,12.00
2022-10-19T07:43:11.001Z,12.20
2022-10-19T07:45:48.368Z,12.10
2022-10-19T07:48:23.154Z,12.30
2022-10-19T07:50:57.040Z,12.10
2022-10-19T07:53:30.877Z,12.20
2022-10-19T07:56:08.447Z,12.00
2022-10-19T07:58:43.302Z,12.00
2022-10-19T08:01:22.024Z,12.00
2022-10-19T08:04:43.166Z,12.00
2022-10-19T08:06:51.642Z,12.00
2022-10-19T08:09:52.641Z,12.10
2022-10-19T08:12:20.128Z,12.10
2022-10-19T08:14:54.062Z,12.20
2022-10-19T08:17:31.440Z,12.50
2022-10-19T08:20:06.294Z,12.30
2022-10-19T08:22:42.249Z,12.30
2022-10-19T08:25:15.855Z,12.30
2022-10-19T08:27:50.210Z,12.40
2022-10-19T08:30:24.246Z,12.40
2022-10-19T08:33:01.490Z,12.40
2022-10-19T08:35:36.892Z,12.50
2022-10-19T08:38:11.057Z,12.50
2022-10-19T08:40:48.359Z,12.50
2022-10-19T08:43:25.224Z,12.60
2022-10-19T08:46:00.361Z,12.60
2022-10-19T08:48:39.694Z,12.70
2022-10-19T08:51:14.451Z,12.70
2022-10-19T08:53:53.246Z,12.80
2022-10-19T08:56:50.899Z,12.90
2022-10-19T08:59:30.440Z,12.90
2022-10-19T09:02:06.204Z,13.00
2022-10-19T09:04:43.858Z,13.10
2022-10-19T09:07:28.985Z,13.10
2022-10-19T09:10:04.519Z,13.10
2022-10-19T09:12:44.803Z,13.50
2022-10-19T09:15:21.053Z,13.40
2022-10-19T09:17:56.033Z,13.40
2022-10-19T09:20:34.937Z,13.40
2022-10-19T09:23:15.916Z,13.40
2022-10-19T09:25:50.425Z,13.80
2022-10-19T09:28:39.711Z,13.50
2022-10-19T09:31:16.908Z,13.70
2022-10-19T09:33:53.364Z,13.70
2022-10-19T09:36:49.430Z,13.80
2022-10-19T09:39:27.088Z,13.80
2022-10-19T09:42:08.035Z,13.70
2022-10-19T09:44:42.268Z,13.90
2022-10-19T09:47:36.065Z,13.70
2022-10-19T09:50:17.880Z,13.80
2022-10-19T09:52:55.336Z,13.80
2022-10-19T09:55:31.875Z,13.80
2022-10-19T09:58:07.645Z,13.90
2022-10-19T10:00:43.110Z,13.90
2022-10-19T10:03:27.349Z,14.00
2022-10-19T10:06:02.653Z,14.00
2022-10-19T10:08:40.973Z,14.10
2022-10-19T10:11:16.925Z,14.10
2022-10-19T10:13:52.392Z,14.10
2022-10-19T10:16:29.587Z,14.20
2022-10-19T10:19:05.877Z,14.10
2022-10-19T10:21:49.718Z,14.10
2022-10-19T10:24:27.422Z,14.10
2022-10-19T10:27:02.684Z,14.10
2022-10-19T10:29:38.310Z,14.20
2022-10-19T10:32:16.616Z,14.00
2022-10-19T10:34:53.981Z,14.00
2022-10-19T10:37:33.243Z,13.90
2022-10-19T10:40:23.352Z,14.10
2022-10-19T10:42:59.332Z,14.20
2022-10-19T10:45:35.567Z,14.20
2022-10-19T10:48:18.456Z,14.20
2022-10-19T10:50:53.989Z,14.20
2022-10-19T10:53:41.409Z,14.10
2022-10-19T10:56:41.171Z,14.00
2022-10-19T10:59:17.086Z,14.30
2022-10-19T11:02:00.812Z,14.00
2022-10-19T11:04:37.057Z,14.00
2022-10-19T11:07:19.664Z,14.00
2022-10-19T11:09:56.428Z,13.90
2022-10-19T11:12:37.962Z,14.00
2022-10-19T11:15:16.853Z,13.80
2022-10-19T11:18:00.389Z,13.70
2022-10-19T11:20:35.950Z,13.70
2022-10-19T11:23:15.020Z,13.70
2022-10-19T11:25:55.556Z,13.70
2022-10-19T11:28:40.902Z,13.80
2022-10-19T11:31:18.076Z,14.00
2022-10-19T11:33:57.715Z,13.60
2022-10-19T11:36:42.325Z,13.50
2022-10-19T11:39:31.287Z,13.40
2022-10-19T11:42:09.011Z,13.40
2022-10-19T11:44:52.922Z,13.30
2022-10-19T11:47:51.244Z,13.30
2022-10-19T11:50:37.108Z,13.30
2022-10-19T11:53:15.348Z,13.30
2022-10-19T11:55:53.440Z,13.30
2022-10-19T11:58:52.682Z,13.40
2022-10-19T12:01:40.920Z,13.50
2022-10-19T12:04:24.368Z,13.60
2022-10-19T12:07:04.290Z,13.60
2022-10-19T12:09:46.700Z,13.70
2022-10-19T12:12:33.900Z,13.70
2022-10-19T12:15:20.794Z,13.60
2022-10-19T12:17:58.931Z,13.50
2022-10-19T12:20:35.718Z,13.50
2022-10-19T12:23:21.711Z,13.50
2022-10-19T12:25:56.544Z,13.40
2022-10-19T12:28:32.525Z,13.30
2022-10-19T12:31:06.512Z,13.30
2022-10-19T12:33:48.576Z,13.40
2022-10-19T12:36:28.748Z,13.30
2022-10-19T12:39:05.781Z,13.30
2022-10-19T12:41:42.655Z,13.30
2022-10-19T12:44:33.330Z,13.30
2022-10-19T12:47:07.310Z,13.40
2022-10-19T12:49:50.603Z,13.30
2022-10-19T12:52:44.656Z,13.30
2022-10-19T12:55:35.167Z,13.30
2022-10-19T12:58:09.688Z,13.30
2022-10-19T13:00:44.576Z,13.60
2022-10-19T13:03:19.500Z,13.10
2022-10-19T13:06:02.142Z,13.50
2022-10-19T13:08:38.791Z,13.10
2022-10-19T13:11:15.133Z,13.00
2022-10-19T13:14:06.638Z,13.00
2022-10-19T13:16:58.977Z,13.00
2022-10-19T13:19:33.219Z,13.40
2022-10-19T13:22:31.346Z,13.00
2022-10-19T13:25:29.887Z,12.90
2022-10-19T13:28:05.245Z,12.90
2022-10-19T13:31:08.214Z,12.90
2022-10-19T13:33:54.175Z,12.90
2022-10-19T13:36:28.013Z,12.90
2022-10-19T13:39:09.170Z,12.90
2022-10-19T13:41:57.421Z,12.90
2022-10-19T13:44:37.010Z,12.90
2022-10-19T13:47:33.233Z,13.00
2022-10-19T13:50:19.717Z,13.00
2022-10-19T13:52:53.741Z,12.70
2022-10-19T13:56:01.411Z,13.10
2022-10-19T13:58:57.893Z,13.10
2022-10-19T14:01:28.400Z,13.10
2022-10-19T14:04:21.137Z,13.10
2022-10-19T14:06:50.302Z,13.10
2022-10-19T14:10:00.746Z,13.10
2022-10-19T14:12:38.218Z,13.10
2022-10-19T14:15:25.451Z,13.00
2022-10-19T14:17:56.385Z,12.90
2022-10-19T14:20:33.301Z,12.90
2022-10-19T14:23:23.307Z,12.90
2022-10-19T14:25:58.036Z,12.90
2022-10-19T14:28:34.510Z,13.10
2022-10-19T14:31:10.483Z,12.80
2022-10-19T14:33:44.541Z,12.90
2022-10-19T14:36:21.199Z,12.90
2022-10-19T14:38:58.018Z,12.90
2022-10-19T14:41:36.550Z,13.00
2022-10-19T14:44:47.669Z,12.90
2022-10-19T14:47:23.803Z,12.90
2022-10-19T14:49:57.892Z,12.90
2022-10-19T14:52:34.452Z,13.00
2022-10-19T14:55:12.762Z,12.80
2022-10-19T14:57:51.066Z,12.80
2022-10-19T15:03:04.655Z,12.60
2022-10-19T15:05:40.967Z,12.70
2022-10-19T15:08:19.446Z,12.50
2022-10-19T15:10:55.333Z,12.50
2022-10-19T15:13:30.036Z,12.40
2022-10-19T15:16:03.979Z,12.80
2022-10-19T15:18:49.677Z,12.40
2022-10-19T15:21:22.703Z,12.40
2022-10-19T15:23:56.808Z,12.50
2022-10-19T15:26:33.478Z,12.30
2022-10-19T15:29:12.952Z,12.40
2022-10-19T15:31:47.192Z,12.40
2022-10-19T15:34:27.825Z,12.30
2022-10-19T15:37:03.742Z,12.50
2022-10-19T15:39:41.146Z,12.30
2022-10-19T15:42:26.214Z,12.30
2022-10-19T15:45:00.399Z,12.30
2022-10-19T15:47:36.005Z,12.30
2022-10-19T15:50:13.571Z,12.30
2022-10-19T15:52:47.975Z,12.30
2022-10-19T15:55:21.892Z,12.50
2022-10-19T15:58:01.609Z,12.30
2022-10-19T16:00:35.999Z,12.30
2022-10-19T16:03:09.926Z,12.30
2022-10-19T16:05:47.343Z,12.60
2022-10-19T16:08:20.970Z,12.30
2022-10-19T16:10:54.978Z,12.40
2022-10-19T16:13:28.929Z,12.20
2022-10-19T16:16:11.193Z,12.20
2022-10-19T16:18:46.141Z,12.20
2022-10-19T16:21:22.753Z,12.10
2022-10-19T16:23:56.929Z,12.10
2022-10-19T16:26:32.257Z,12.10
2022-10-19T16:29:05.879Z,12.10
2022-10-19T16:31:40.838Z,12.30
2022-10-19T16:34:14.969Z,12.00
2022-10-19T16:36:51.543Z,12.10
2022-10-19T16:39:25.981Z,12.30
2022-10-19T16:42:00.223Z,12.00
2022-10-19T16:44:33.898Z,12.00
2022-10-19T16:47:07.956Z,12.00
2022-10-19T16:49:41.917Z,11.90
2022-10-19T16:52:19.179Z,12.00
2022-10-19T16:54:52.927Z,12.00
2022-10-19T16:57:26.906Z,12.00
2022-10-19T17:00:00.856Z,12.20
2022-10-19T17:02:34.511Z,12.20
2022-10-19T17:05:09.334Z,12.00
2022-10-19T17:07:45.715Z,12.00
2022-10-19T17:10:20.028Z,12.00
2022-10-19T17:12:53.899Z,12.00
2022-10-19T17:15:42.531Z,12.00
2022-10-19T17:20:55.080Z,12.00
2022-10-19T17:23:32.514Z,12.00
2022-10-19T17:26:07.051Z,12.10
2022-10-19T17:28:41.100Z,12.00
2022-10-19T17:31:16.108Z,11.90
2022-10-19T17:33:50.201Z,11.90
2022-10-19T17:36:26.809Z,12.30
2022-10-19T17:39:04.483Z,11.90
2022-10-19T17:41:39.301Z,11.80
2022-10-19T17:44:14.721Z,11.80
2022-10-19T17:46:49.513Z,11.70
2022-10-19T17:49:24.335Z,11.70
2022-10-19T17:51:59.657Z,11.70
2022-10-19T17:54:48.554Z,11.60
2022-10-19T17:57:33.035Z,11.60
2022-10-19T18:00:10.547Z,11.50
2022-10-19T18:02:49.247Z,11.50
2022-10-19T18:05:24.844Z,11.40
2022-10-19T18:07:59.874Z,11.40
2022-10-19T18:10:39.348Z,11.30
2022-10-19T18:13:10.462Z,11.20
2022-10-19T18:15:45.647Z,11.10
2022-10-19T18:18:23.373Z,11.10
2022-10-19T18:21:00.164Z,11.00
2022-10-19T18:23:35.836Z,10.90
2022-10-19T18:26:14.222Z,10.80
2022-10-19T18:28:49.221Z,10.70
2022-10-19T18:31:25.603Z,10.60
2022-10-19T18:34:08.150Z,10.50
2022-10-19T18:36:47.107Z,10.50
2022-10-19T18:39:21.985Z,10.40
2022-10-19T18:42:02.232Z,10.30
2022-10-19T18:44:45.139Z,10.30
2022-10-19T18:47:22.549Z,10.20
2022-10-19T18:49:58.693Z,10.20
2022-10-19T18:52:36.625Z,10.20
2022-10-19T18:55:13.026Z,10.10
2022-10-19T18:57:50.271Z,10.00
2022-10-19T19:00:25.495Z,10.00
2022-10-19T19:03:00.812Z,9.90
2022-10-19T19:05:36.232Z,10.30
2022-10-19T19:08:11.429Z,9.70
2022-10-19T19:10:49.716Z,9.50
2022-10-19T19:13:29.642Z,9.50
2022-10-19T19:16:07.344Z,9.40
2022-10-19T19:18:45.969Z,9.40
2022-10-19T19:21:19.903Z,9.40
2022-10-19T19:23:57.468Z,9.40
2022-10-19T19:26:34.463Z,9.30
2022-10-19T19:29:17.131Z,9.30
2022-10-19T19:31:49.747Z,9.30
2022-10-19T19:34:26.602Z,9.20
2022-10-19T19:37:11.120Z,9.20
2022-10-19T19:39:46.870Z,9.10
2022-10-19T19:42:27.948Z,9.60
2022-10-19T19:45:06.149Z,9.10
2022-10-19T19:47:41.706Z,9.00
2022-10-19T19:50:18.113Z,8.90
2022-10-19T19:52:58.232Z,8.90
2022-10-19T19:55:39.065Z,8.90
2022-10-19T19:58:16.026Z,9.10
2022-10-19T20:00:53.712Z,8.70
2022-10-19T20:03:29.060Z,8.70
2022-10-19T20:06:05.555Z,8.60
2022-10-19T20:08:44.362Z,8.50
2022-10-19T20:11:22.384Z,8.50
2022-10-19T20:13:59.149Z,8.50
2022-10-19T20:16:42.919Z,8.50
2022-10-19T20:19:18.585Z,8.40
2022-10-19T20:21:56.659Z,8.30
2022-10-19T20:24:34.219Z,8.30
2022-10-19T20:27:12.385Z,8.20
2022-10-19T20:29:48.601Z,8.20
2022-10-19T20:32:26.836Z,8.20
2022-10-19T20:35:06.469Z,8.10
2022-10-19T20:37:42.420Z,8.10
2022-10-19T20:40:17.490Z,8.00
2022-10-19T20:42:53.137Z,8.00
2022-10-19T20:45:27.486Z,7.90
2022-10-19T20:48:05.141Z,7.90
2022-10-19T20:50:40.012Z,8.30
2022-10-19T20:53:14.461Z,7.80
2022-10-19T20:55:49.318Z,8.20
2022-10-19T20:58:23.604Z,7.80
2022-10-19T21:00:58.300Z,7.70
2022-10-19T21:03:35.510Z,8.10
2022-10-19T21:06:11.696Z,7.90
2022-10-19T21:08:49.266Z,7.70
2022-10-19T21:11:24.233Z,7.60
2022-10-19T21:13:58.817Z,7.60
2022-10-19T21:16:34.344Z,7.50
2022-10-19T21:19:13.220Z,7.50
2022-10-19T21:21:47.917Z,7.60
2022-10-19T21:24:22.993Z,7.40
2022-10-19T21:26:57.361Z,7.40
2022-10-19T21:29:32.016Z,7.40
2022-10-19T21:32:06.312Z,7.40
2022-10-19T21:34:43.684Z,7.40
2022-10-19T21:37:18.685Z,7.50
2022-10-19T21:39:53.199Z,7.50
2022-10-19T21:42:27.167Z,7.50
2022-10-19T21:45:18.375Z,7.50
2022-10-19T21:47:56.895Z,7.60
2022-10-19T21:50:33.990Z,7.70
2022-10-19T21:53:08.334Z,7.60
2022-10-19T21:55:42.445Z,7.60
2022-10-19T21:58:17.541Z,7.60
2022-10-19T22:00:52.355Z,8.00
2022-10-19T22:03:26.571Z,7.50
2022-10-19T22:06:04.383Z,7.50
2022-10-19T22:08:38.744Z,7.50
2022-10-19T22:11:14.492Z,7.60
2022-10-19T22:13:49.589Z,7.40
2022-10-19T22:16:24.060Z,7.90
2022-10-19T22:18:58.488Z,7.40
2022-10-19T22:24:30.135Z,7.60
2022-10-19T22:27:04.144Z,7.20
2022-10-19T22:29:38.552Z,7.60
2022-10-19T22:32:14.232Z,7.10
2022-10-19T22:34:48.072Z,7.60
2022-10-19T22:37:25.100Z,7.00
2022-10-19T22:40:01.569Z,7.00
2022-10-19T22:42:38.354Z,6.90
2022-10-19T22:45:14.178Z,6.90
2022-10-19T22:47:48.345Z,6.80
2022-10-19T22:50:23.211Z,6.80
2022-10-19T22:53:00.146Z,6.80
2022-10-19T22:55:34.206Z,6.80
2022-10-19T22:58:08.853Z,6.70
2022-10-19T23:00:43.649Z,6.70
2022-10-19T23:03:18.842Z,6.70
2022-10-19T23:05:53.881Z,6.70
2022-10-19T23:08:31.483Z,6.70
2022-10-19T23:11:07.023Z,6.80
2022-10-19T23:13:42.107Z,6.80
2022-10-19T23:16:16.660Z,6.80
2022-10-19T23:18:51.476Z,6.80
2022-10-19T23:21:26.703Z,6.80
2022-10-19T23:24:03.928Z,6.80
2022-10-19T23:26:39.355Z,6.70
2022-10-19T23:29:13.577Z,6.70
2022-10-19T23:31:48.932Z,6.80
2022-10-19T23:34:23.509Z,6.70
2022-10-19T23:36:59.207Z,6.70
2022-10-19T23:39:36.538Z,6.80
2022-10-19T23:42:11.407Z,6.70
2022-10-19T23:44:48.355Z,6.70
2022-10-19T23:47:21.985Z,6.60
2022-10-19T23:50:01.654Z,6.60
2022-10-19T23:52:36.065Z,6.50
2022-10-19T23:55:14.263Z,6.50
2022-10-19T23:57:48.179Z,6.40
